• Join FlightAware (Why Join?)
  • Login
  • US Flag 
06:51AM EDT


 

Airport Tracker/Info


-or-


 

Live Flight TrackerFlight Track Log ✈ AAL1459 ✈ 06-May-2013 ✈ KBOS - KORD

Flight Track Log - Related Links

Times and Time Zones

All times are in EDT time to prevent confusion due to time zone crossing. See the AAL1459 flight status page for this flight to view local times or setup timezone preferences in your user account.

Time Position Orientation Groundspeed Altitude Reporting Facility
EDT Latitude Longitude Course Direction KTS MPH feet Rate Location/Type
02:28PM 42.3667 -70.9667 280° West 163 188 900  Level KA90
02:29PM 42.3833 -70.8833 75° East 228 262 2,700 2,760 Climbing KA90
02:30PM 42.5555 -70.8111 340° North  Level FlightAware Approximate
02:31PM 42.6246 -70.9181 308° West  Level FlightAware Approximate
02:31PM 42.4653 -70.7711 45° Northeast 301 346 9,000  Level Boston Center
02:32PM 42.6788 -71.0424 300° West  Level FlightAware Approximate
02:33PM 42.7334 -71.1667 304° West  Level FlightAware Approximate
02:33PM 42.5883 -70.9314 316° Northwest 360 414 13,700  Level Boston Center
02:34PM 42.7708 -71.2993 280° West  Level FlightAware Approximate
02:34PM 42.6567 -71.0539 307° West 378 435 17,000  Level Boston Center
02:36PM 42.7864 -71.2944 306° West 389 448 21,800 2,160 Climbing Boston Center
02:37PM 42.8047 -71.4525 279° West 394 453 23,600 1,740 Climbing Boston Center
02:39PM 42.8144 -71.7102 278° West  Level FlightAware Approximate
02:40PM 42.8475 -71.9531 278° West 449 517 28,800  Level Boston Center
02:41PM 42.8625 -72.1200 277° West 449 517 30,800 1,740 Climbing Boston Center
02:43PM 42.8833 -72.3759 270° West  Level FlightAware Approximate
02:43PM 42.8964 -72.4572 270° West 449 517 34,100  Level Boston Center
02:44PM 42.9131 -72.6186 278° West 449 517 35,800 1,500 Climbing Boston Center
02:45PM 42.9189 -72.7717 273° West 435 501 37,200 1,080 Climbing Boston Center
02:46PM 42.9308 -72.9336 276° West 429 494 38,000 360 Climbing Boston Center
02:47PM 42.9489 -73.0756 280° West 424 488 38,000  Level Boston Center
02:48PM 42.9603 -73.2372 276° West 429 494 38,000  Level Boston Center
02:49PM 42.9694 -73.4106 274° West 424 488 38,000  Level Boston Center
02:50PM 42.9806 -73.5667 276° West 424 488 38,000  Level Boston Center
02:52PM 43.0061 -73.8853 276° West 424 488 38,000 -60 Level Boston Center
02:53PM 43.0186 -74.0417 276° West 424 488 37,900  Descending Boston Center
02:55PM 43.0428 -74.3633 276° West 424 488 38,000  Climbing Boston Center
02:57PM 43.0661 -74.6853 276° West 424 488 38,000  Level Boston Center
02:59PM 43.0817 -74.9418 275° West  Level FlightAware Approximate
02:59PM 43.0864 -75.0103 275° West 424 488 38,000  Level Boston Center
03:01PM 43.1012 -75.2670 275° West  Level FlightAware Approximate
03:02PM 43.1183 -75.4839 275° West 429 494 38,000  Level Boston Center
03:03PM 43.1286 -75.6436 275° West 429 494 38,000  Level Boston Center
03:04PM 43.1383 -75.8092 275° West 429 494 38,000  Level Boston Center
03:09PM 43.1606 -76.6581 272° West 428 493 38,000  Level Cleveland Center
03:10PM 43.1575 -76.8178 269° West 423 487 38,000  Level Cleveland Center
03:11PM 43.1586 -76.9828 271° West 428 493 38,000  Level Cleveland Center
03:12PM 43.1575 -77.1450 270° West 428 493 38,000  Level Cleveland Center
03:13PM 43.1558 -77.3075 269° West 428 493 38,000  Level Cleveland Center
03:15PM 43.1516 -77.5423 269° West  Level FlightAware Approximate
03:16PM 43.1519 -77.8000 269° West 433 498 38,000  Level Cleveland Center
03:17PM 43.1333 -78.0333 264° West 430 495 38,000  Level Toronto Center
03:18PM 43.1450 -78.1306 279° West 438 504 38,000  Level Cleveland Center
03:20PM 43.1406 -78.4408 269° West 445 512 38,000  Level Cleveland Center
03:21PM 43.1372 -78.6058 268° West 439 505 38,000  Level Cleveland Center
03:24PM 43.1167 -79.1833 267° West 430 495 38,000  Level Toronto Center
03:26PM 43.1000 -79.5167 266° West 440 506 38,000  Level Toronto Center
03:27PM 43.0833 -79.6833 262° West 440 506 38,000  Level Toronto Center
03:28PM 43.0833 -79.8333 270° West 440 506 38,000  Level Toronto Center
03:30PM 43.0780 -79.9936 267° West  Level FlightAware Approximate
03:33PM 43.0500 -80.6833 269° West 440 506 38,000  Level Toronto Center
03:34PM 43.0333 -80.8500 262° West 440 506 38,000  Level Toronto Center
03:35PM 43.0167 -81.0167 262° West 450 518 38,000  Level Toronto Center
03:37PM 43.0379 -81.0287 267° West  Level FlightAware Approximate
03:37PM 43.0172 -81.1770 270° West  Level FlightAware Approximate
03:37PM 43.0350 -81.3586 270° West 437 503 38,000  Level Cleveland Center
03:38PM 43.0326 -81.1765 269° West  Level FlightAware Approximate
03:38PM 43.0294 -81.5175 267° West 432 497 38,000  Level Cleveland Center
03:39PM 43.0298 -81.3245 269° West  Level FlightAware Approximate
03:39PM 43.0258 -81.6881 268° West 444 511 38,000  Level Cleveland Center
03:40PM 43.0222 -81.8553 268° West 444 511 38,000  Level Cleveland Center
03:41PM 43.0200 -82.0286 269° West 444 511 38,000 -900 Level Cleveland Center
03:42PM 43.0158 -82.1989 268° West 449 517 36,300 -1,740 Descending Cleveland Center
03:43PM 43.0111 -82.3775 268° West 462 532 34,500 -1,140 Descending Cleveland Center
03:44PM 43.0000 -82.5500 265° West 470 541 34,000 -300 Descending Toronto Center
03:45PM 43.0008 -82.7294 270° West 467 537 34,000  Level Cleveland Center
03:46PM 42.9953 -82.9053 268° West 467 537 34,000  Level Cleveland Center
03:48PM 42.9836 -83.2594 268° West 469 540 34,000  Level Cleveland Center
03:49PM 42.9772 -83.4381 267° West 469 540 34,000  Level Cleveland Center
03:50PM 42.9706 -83.6164 267° West 474 545 34,000 -480 Level Cleveland Center
03:51PM 42.9614 -83.7978 266° West 479 551 33,100 -1,020 Descending Cleveland Center
03:52PM 42.9461 -83.9700 263° West 472 543 32,100 -960 Descending Cleveland Center
03:53PM 42.9264 -84.1419 261° West 472 543 31,200 -720 Descending Cleveland Center
03:55PM 42.8974 -84.3208 260° West  Level FlightAware Approximate
03:55PM 42.8928 -84.4919 260° West 469 540 30,000  Level Chicago Center
03:56PM 42.8739 -84.6669 262° West 469 540 29,200 -1,020 Descending Chicago Center
03:57PM 42.8583 -84.8278 263° West 441 507 28,000 -600 Descending Chicago Center
03:59PM 42.8386 -85.0175 262° West 424 488 28,000 -540 Level Chicago Center
04:01PM 42.8047 -85.3325 262° West 419 482 26,400 -840 Descending Chicago Center
04:02PM 42.7881 -85.4844 262° West 408 470 25,400 -1,020 Descending Chicago Center
04:03PM 42.7628 -85.6300 257° West 396 456 24,400 -960 Descending Chicago Center
04:04PM 42.7364 -85.7742 256° West 391 450 23,500 -960 Descending Chicago Center
04:05PM 42.7108 -85.9144 256° West 383 441 22,400 -900 Descending Chicago Center
04:07PM 42.6556 -86.1749 253° West  Level FlightAware Approximate
04:08PM 42.6258 -86.3722 251° West 398 458 20,000  Level Chicago Center
04:10PM 42.5714 -86.6644 256° West 398 458 17,300 -1,500 Descending Chicago Center
04:12PM 42.5050 -86.9331 252° West 374 430 13,900 -1,680 Descending Chicago Center
04:13PM 42.4617 -87.0864 249° West 364 419 12,100 -1,440 Descending Chicago Center
04:14PM 42.4280 -87.1882 251° West  Level FlightAware Approximate
04:15PM 42.4000 -87.3000 249° West 355 409 10,000  Level Chicago TRACON
04:16PM 42.3572 -87.4639 251° West 349 402 10,000  Level Chicago Center
04:18PM 42.2667 -87.6167 231° Southwest 316 364 10,000 -180 Level Chicago TRACON
04:18PM 42.2367 -87.6436 214° Southwest 316 364 9,700 -1,140 Descending Chicago Center
04:19PM 42.1631 -87.7189 217° Southwest 281 323 8,300 -1,260 Descending Chicago Center
04:20PM 42.1036 -87.7844 219° Southwest 280 322 7,200 -660 Descending Chicago Center
04:21PM 42.0747 -87.8614 243° Southwest 239 275 7,000 -120 Descending Chicago Center
04:22PM 42.0711 -87.9406 267° West 217 250 7,000  Level Chicago Center
04:23PM 42.0667 -87.9833 262° West 213 245 7,000 -240 Level Chicago TRACON
04:24PM 42.0667 -88.0667 270° West 207 238 6,700 -780 Descending Chicago TRACON
04:25PM 42.0667 -88.1333 270° West 204 235 5,500 -1,080 Descending Chicago TRACON
04:26PM 42.0333 -88.2000 236° Southwest 208 239 4,600 -720 Descending Chicago TRACON
04:26PM 42.0117 -88.1736 138° Southeast 200 230 4,300 -540 Descending Chicago Center
04:27PM 41.9917 -88.1158 115° Southeast 183 211 3,700 -720 Descending Chicago Center
04:29PM 41.9828 -88.0556 101° East 171 197 2,800 -960 Descending Chicago Center
04:30PM 41.9833 -87.9833 89° East 142 163 1,700 -960 Descending Chicago TRACON
04:31PM 41.9833 -87.9333 90° East 149 171 900 -900 Descending Chicago TRACON